Three Mile, North Carolina
Current Conditions -  °F | °C
As of 8:35 PM on Thursday 27 Nov 2014 (Local Time) from KTNB Reporting Station
Unknown Precip Unknown Precip  
Wind Chill: 14°   Ceiling: 2000
Heat Index: 26°   Visibility: 10mi
Dew Point: 21°   Wind: 15mph
Humidity: 82%   Direction: 300°WNW
Pressure: 30.16"   Gusts: 24mph
Location:  36.0227°N, 81.9499°W
Report Text: KTNB 280135Z AUTO 30013G21KT 270V330 10SM UP OVC020 M03/M06 A3016 RMK AO2 T10331059
Loading
Personal Weather Stations






























Interactive Weather Map New forecast layout! Learn more

10-Day Weather Forecast

Advertisements
Track Severe Weather on mobile